Hauptseite
METAR-TAF:

METAR-TAF

Flughäfen :

Southampton International Airport

Southampton, England

Breite: 50-54N, Länge: 001-24W, Höhe: 9 m

Beobachtung

Neuester Wetterbericht von vor 16 Minuten, um 19:20 UTC
Wind 8 kt aus Süd/Südwest
Temperatur 14°C
Luftfeuchtigkeit 51%
Luftdruck 1019 hPa
Sichtweite 10 km oder mehr
keine Wolken unter 1500 m und keine Kumulonimbus oder Gewitterwolken

METAR: EGHI 221920Z 20008KT CAVOK 14/04 Q1019

Zeit: 20:36 (19:36 UTC)

Prognose

Neuester Wetterbericht von vor 2 Stunden und 35 Minuten, um 17:01 UTC
Gültige Prognose vom 22 um 18 UTC bis 22 um 22 UTC
Wind 6 kt aus Süd
Sichtweite 10 km oder mehr
Leicht bewölkt in der Höhe von 4000 ft

TAF: EGHI 221701Z 2218/2222 18006KT 9999 FEW040

Wetterbeobachtungen und Prognosen von mehr als 4000 Flughäfen (METAR und TAF Bericht).

Die verfügbaren Stationen werden durch gelbe und rote Markierungen auf der Karte dargestellt.

Führen Sie die Maus auf sie, um den Namen der Station zu sehen.

Darauf klicken, um die Beobachtung von Wetterbeobachtungen und Prognosen zu sehen.

Um die Karte zu ändern : klicken Sie auf den grünen Tasten mit einem schwarzen Kreuz Zum Vergrößern, auf den grünen Button mit einem Gedankenstrich zu verkleinern, oder auf die grünen Pfeile für benachbarte Karten.


METAR-TAF: